Time;durP1;ratioP1;P1;durP2;ratioP2;P2;SDS_P1;SDS_P2;PMS_P1;PMS_P2;Temp;Humidity;BMP_temperature;BMP_pressure;BME280_temperature;BME280_humidity;BME280_pressure;Samples;Min_cycle;Max_cycle;Signal;HPM_P1;HPM_P2
2020/12/14 00:02:27;;;;;;;26.17;17.20;;;3.50;99.90;;;;;;4886126;29;20183;-94
2020/12/14 00:04:54;;;;;;;26.37;16.00;;;3.50;99.90;;;;;;4886343;29;20187;-96
2020/12/14 00:07:23;;;;;;;25.43;17.20;;;3.40;99.90;;;;;;4886661;29;20214;-96
2020/12/14 00:09:49;;;;;;;25.93;16.43;;;3.40;99.90;;;;;;4885656;29;20219;-93
2020/12/14 00:12:19;;;;;;;27.60;16.50;;;3.40;99.90;;;;;;4872573;29;20623;-94
2020/12/14 00:14:45;;;;;;;26.50;16.30;;;3.40;99.90;;;;;;4867876;29;20299;-95
2020/12/14 00:17:10;;;;;;;25.57;15.97;;;3.50;99.90;;;;;;4874718;29;20331;-95
2020/12/14 00:19:36;;;;;;;28.30;17.07;;;3.50;99.90;;;;;;4885069;29;20242;-94
2020/12/14 00:22:14;;;;;;;26.30;16.63;;;3.60;99.90;;;;;;4880280;29;20191;-94
2020/12/14 00:24:51;;;;;;;28.17;17.20;;;3.70;99.90;;;;;;4877428;29;20192;-94
2020/12/14 00:27:16;;;;;;;25.77;16.33;;;3.80;99.90;;;;;;4867146;29;20255;-94
2020/12/14 00:29:42;;;;;;;27.60;16.33;;;3.80;99.90;;;;;;4883818;29;20633;-95
2020/12/14 00:32:10;;;;;;;25.93;16.43;;;3.90;99.90;;;;;;4870394;29;20195;-93
2020/12/14 00:34:36;;;;;;;27.37;16.60;;;3.90;99.90;;;;;;4885910;29;20183;-94
2020/12/14 00:37:03;;;;;;;28.03;17.20;;;3.90;99.90;;;;;;4885618;29;20241;-94
2020/12/14 00:39:29;;;;;;;29.80;16.50;;;3.90;99.90;;;;;;4885356;29;20191;-94
2020/12/14 00:42:04;;;;;;;26.27;15.27;;;3.90;99.90;;;;;;4884680;29;20586;-94
2020/12/14 00:44:30;;;;;;;22.80;14.07;;;4.00;99.90;;;;;;4885669;29;20261;-94
2020/12/14 00:46:55;;;;;;;24.43;15.27;;;4.00;99.90;;;;;;4885432;29;20327;-94
2020/12/14 00:49:22;;;;;;;23.27;14.87;;;3.90;99.90;;;;;;4885754;29;20191;-95
2020/12/14 00:51:48;;;;;;;24.40;14.53;;;3.80;99.90;;;;;;4885046;29;20191;-94
2020/12/14 00:54:13;;;;;;;25.77;15.37;;;3.80;99.90;;;;;;4885497;29;20185;-95
2020/12/14 00:56:39;;;;;;;26.10;14.60;;;3.80;99.90;;;;;;4884996;29;20187;-94
2020/12/14 00:59:05;;;;;;;22.80;14.40;;;3.80;99.90;;;;;;4885465;29;20187;-94
2020/12/14 01:01:31;;;;;;;24.50;14.00;;;3.80;99.90;;;;;;4885305;29;20331;-94
2020/12/14 01:04:06;;;;;;;22.60;13.87;;;3.70;99.90;;;;;;4885279;29;20179;-94
2020/12/14 01:06:32;;;;;;;19.70;12.80;;;3.70;99.90;;;;;;4885181;29;20174;-95
2020/12/14 01:08:58;;;;;;;18.47;11.80;;;3.60;99.90;;;;;;4885345;29;20198;-94
2020/12/14 01:11:37;;;;;;;21.87;12.43;;;3.50;99.90;;;;;;4884945;29;20194;-93
2020/12/14 01:14:03;;;;;;;22.53;13.30;;;3.50;99.90;;;;;;4884987;29;20243;-94
2020/12/14 01:16:29;;;;;;;18.87;12.90;;;3.50;99.90;;;;;;4884803;29;20187;-96
2020/12/14 01:18:55;;;;;;;20.33;12.83;;;3.40;99.90;;;;;;4884276;29;20192;-93
2020/12/14 01:21:24;;;;;;;21.73;12.70;;;3.40;99.90;;;;;;4884848;29;20188;-94
2020/12/14 01:23:53;;;;;;;21.33;13.10;;;3.40;99.90;;;;;;4890553;29;20195;-93
2020/12/14 01:26:19;;;;;;;19.83;12.73;;;3.40;99.90;;;;;;4865735;29;20199;-94
2020/12/14 01:28:45;;;;;;;21.80;12.17;;;3.40;99.90;;;;;;4865954;29;20659;-94
2020/12/14 01:31:11;;;;;;;18.97;12.70;;;3.30;99.90;;;;;;4865811;29;20188;-94
2020/12/14 01:33:37;;;;;;;20.77;13.17;;;3.30;99.90;;;;;;4866269;29;20198;-94
2020/12/14 01:36:03;;;;;;;17.93;12.07;;;3.30;99.90;;;;;;4865739;29;20812;-94
2020/12/14 01:38:32;;;;;;;16.23;11.80;;;3.30;99.90;;;;;;4879521;29;20703;-93
2020/12/14 01:40:57;;;;;;;17.73;12.00;;;3.30;99.90;;;;;;4884662;29;20191;-95
2020/12/14 01:43:36;;;;;;;17.30;12.80;;;3.30;99.90;;;;;;5308299;23;20267;-95
2020/12/14 01:46:02;;;;;;;21.33;12.37;;;3.40;99.90;;;;;;4898867;29;20259;-91
2020/12/14 01:48:28;;;;;;;16.53;12.27;;;3.40;99.90;;;;;;4900771;29;20219;-93
2020/12/14 01:50:55;;;;;;;20.33;13.00;;;3.40;99.90;;;;;;4903067;23;20226;-91
2020/12/14 01:53:21;;;;;;;17.97;11.80;;;3.50;99.90;;;;;;4876567;29;20239;-92
2020/12/14 01:55:57;;;;;;;18.20;12.10;;;3.50;99.90;;;;;;4877719;29;20160;-91
2020/12/14 01:58:28;;;;;;;18.03;12.50;;;3.50;99.90;;;;;;4881647;29;20195;-91
2020/12/14 02:01:02;;;;;;;16.80;12.20;;;3.60;99.90;;;;;;4881493;29;20195;-92
2020/12/14 02:03:28;;;;;;;18.53;12.20;;;3.60;99.90;;;;;;4903234;29;20158;-93
2020/12/14 02:06:28;;;;;;;18.67;12.17;;;3.60;99.90;;;;;;4887382;29;20168;-95
2020/12/14 02:08:54;;;;;;;17.37;11.37;;;3.60;99.90;;;;;;4902794;29;20188;-96
2020/12/14 02:11:20;;;;;;;15.93;11.77;;;3.60;99.90;;;;;;4899883;29;20211;-95
2020/12/14 02:13:47;;;;;;;20.10;12.43;;;3.60;99.90;;;;;;4881828;29;20213;-95
2020/12/14 02:16:13;;;;;;;16.13;11.67;;;3.60;99.90;;;;;;4882424;29;20559;-96
2020/12/14 02:18:39;;;;;;;23.83;12.03;;;3.60;99.90;;;;;;4874752;29;20230;-90
2020/12/14 02:21:08;;;;;;;16.37;11.40;;;3.70;99.90;;;;;;4875166;29;20199;-92
2020/12/14 02:23:35;;;;;;;15.20;10.73;;;3.60;99.90;;;;;;4874786;29;20639;-91
2020/12/14 02:26:28;;;;;;;15.70;11.17;;;3.60;99.90;;;;;;4874552;29;20188;-92
2020/12/14 02:28:54;;;;;;;15.50;10.50;;;3.60;99.90;;;;;;4891854;29;20207;-91
2020/12/14 02:31:20;;;;;;;15.33;10.63;;;3.70;99.90;;;;;;4874554;29;20251;-90
2020/12/14 02:33:45;;;;;;;14.70;10.90;;;3.60;99.90;;;;;;4866965;29;20189;-92
2020/12/14 02:36:16;;;;;;;13.67;9.57;;;3.60;99.90;;;;;;4877779;23;20192;-92
2020/12/14 02:38:41;;;;;;;13.83;10.20;;;3.60;99.90;;;;;;4920693;29;20201;-91
2020/12/14 02:41:07;;;;;;;11.70;9.63;;;3.50;99.90;;;;;;4922292;29;20189;-91
2020/12/14 02:43:33;;;;;;;12.90;9.53;;;3.50;99.90;;;;;;4918741;29;20166;-91
2020/12/14 02:46:02;;;;;;;12.47;9.80;;;3.50;99.90;;;;;;4913786;29;20202;-91
2020/12/14 02:48:27;;;;;;;12.73;9.37;;;3.40;99.90;;;;;;4920848;29;20223;-90
2020/12/14 02:50:53;;;;;;;13.83;8.97;;;3.40;99.90;;;;;;4922358;29;20209;-92
2020/12/14 02:53:22;;;;;;;11.40;9.03;;;3.30;99.90;;;;;;4939805;29;20179;-96
2020/12/14 02:56:33;;;;;;;15.70;8.93;;;3.30;99.90;;;;;;4923048;28;20177;-96
2020/12/14 02:59:04;;;;;;;13.67;9.77;;;3.40;99.90;;;;;;4933706;23;20270;-92
2020/12/14 03:01:30;;;;;;;11.37;9.27;;;3.40;99.90;;;;;;4937806;28;20186;-96
2020/12/14 03:03:56;;;;;;;12.70;9.33;;;3.30;99.90;;;;;;4921907;29;20178;-95
2020/12/14 03:06:30;;;;;;;13.23;8.83;;;3.30;99.90;;;;;;4922538;29;20190;-92
2020/12/14 03:08:56;;;;;;;13.00;8.83;;;3.30;99.90;;;;;;4929484;23;20237;-93
2020/12/14 03:11:22;;;;;;;11.43;9.00;;;3.30;99.90;;;;;;4919909;29;20202;-92
2020/12/14 03:13:47;;;;;;;11.13;8.53;;;3.40;99.90;;;;;;4935720;29;20187;-96
2020/12/14 03:16:26;;;;;;;12.40;8.17;;;3.40;99.90;;;;;;4937733;29;20197;-92
2020/12/14 03:18:51;;;;;;;10.90;8.17;;;3.40;99.90;;;;;;4935052;23;20272;-96
2020/12/14 03:21:18;;;;;;;10.97;8.23;;;3.40;99.90;;;;;;4909986;29;20245;-96
2020/12/14 03:23:44;;;;;;;11.37;7.50;;;3.40;99.90;;;;;;4927541;29;20179;-96
2020/12/14 03:26:18;;;;;;;10.57;7.77;;;3.50;99.90;;;;;;4927547;29;20652;-96
2020/12/14 03:28:44;;;;;;;11.13;6.80;;;3.50;99.90;;;;;;4908335;29;20190;-91
2020/12/14 03:31:11;;;;;;;10.60;7.07;;;3.50;99.90;;;;;;4916650;29;20234;-96
2020/12/14 03:33:37;;;;;;;10.20;6.80;;;3.60;99.90;;;;;;4916327;29;20191;-90
2020/12/14 03:36:06;;;;;;;12.40;7.37;;;3.60;99.90;;;;;;4917098;29;20179;-90
2020/12/14 03:38:32;;;;;;;9.77;6.37;;;3.70;99.90;;;;;;4916081;29;20189;-90
2020/12/14 03:41:06;;;;;;;11.13;7.00;;;3.70;99.90;;;;;;4918467;29;20178;-95
2020/12/14 03:43:33;;;;;;;8.37;6.30;;;3.70;99.90;;;;;;4916999;29;20167;-92
2020/12/14 03:46:23;;;;;;;7.80;5.90;;;3.70;99.90;;;;;;4918854;29;20171;-96
2020/12/14 03:48:55;;;;;;;8.73;6.57;;;3.70;99.90;;;;;;4916730;29;20197;-94
2020/12/14 03:51:22;;;;;;;9.07;6.13;;;3.70;99.90;;;;;;4916654;29;20213;-93
2020/12/14 03:53:48;;;;;;;7.93;6.03;;;3.70;99.90;;;;;;4915359;29;20179;-93
2020/12/14 03:56:26;;;;;;;9.87;7.03;;;3.70;99.90;;;;;;4913718;29;20612;-95
2020/12/14 03:58:56;;;;;;;8.53;6.00;;;3.80;99.90;;;;;;4915199;29;20249;-91
2020/12/14 04:01:25;;;;;;;9.37;6.03;;;3.80;99.90;;;;;;4932661;29;20206;-93
2020/12/14 04:03:53;;;;;;;7.60;5.90;;;3.80;99.90;;;;;;4914308;29;20179;-91
2020/12/14 04:06:23;;;;;;;8.23;6.27;;;3.90;99.90;;;;;;4914601;29;20190;-96
2020/12/14 04:08:49;;;;;;;8.37;6.37;;;3.90;99.90;;;;;;4936033;23;20332;-94
2020/12/14 04:11:16;;;;;;;10.30;6.07;;;3.90;99.90;;;;;;4914543;29;20179;-96
2020/12/14 04:13:42;;;;;;;9.13;6.27;;;3.90;99.90;;;;;;4910768;29;20223;-93
2020/12/14 04:16:10;;;;;;;8.27;5.87;;;3.90;99.90;;;;;;4916253;29;20206;-93
2020/12/14 04:18:37;;;;;;;7.80;5.90;;;3.80;99.90;;;;;;4898497;29;20183;-94
2020/12/14 04:21:04;;;;;;;7.77;6.33;;;3.90;99.90;;;;;;4899285;29;20195;-94
2020/12/14 04:23:32;;;;;;;8.87;6.53;;;3.90;99.90;;;;;;4885094;29;20186;-95
2020/12/14 04:26:09;;;;;;;10.27;6.40;;;3.90;99.90;;;;;;4935911;23;20245;-96
2020/12/14 04:28:35;;;;;;;9.50;6.33;;;3.90;99.90;;;;;;4920999;29;20265;-96
2020/12/14 04:33:27;;;;;;;8.57;6.70;;;3.90;99.90;;;;;;5026811;23;20249;-94
2020/12/14 04:35:58;;;;;;;7.20;6.03;;;3.90;99.90;;;;;;4919328;29;20254;-92
2020/12/14 04:38:24;;;;;;;8.77;6.37;;;3.90;99.90;;;;;;4922552;29;20209;-96
2020/12/14 04:40:50;;;;;;;8.07;6.13;;;3.90;99.90;;;;;;4939996;29;20194;-92
2020/12/14 04:43:16;;;;;;;9.37;6.83;;;3.90;99.90;;;;;;4916085;29;20238;-92
2020/12/14 04:46:18;;;;;;;8.77;6.30;;;3.90;99.90;;;;;;4923230;29;20170;-92
2020/12/14 04:48:45;;;;;;;8.60;6.07;;;3.90;99.90;;;;;;4923619;29;20228;-96
2020/12/14 04:51:15;;;;;;;8.77;6.30;;;3.90;99.90;;;;;;4922919;29;20186;-94
2020/12/14 04:53:44;;;;;;;10.00;6.13;;;3.90;99.90;;;;;;4918719;29;20281;-91
2020/12/14 04:56:18;;;;;;;9.67;7.50;;;3.90;99.90;;;;;;4912290;29;20266;-91
2020/12/14 04:58:48;;;;;;;9.83;6.73;;;3.80;99.90;;;;;;4922055;23;20246;-91
2020/12/14 05:01:13;;;;;;;13.17;6.83;;;3.80;99.90;;;;;;4936136;29;20202;-92
2020/12/14 05:03:39;;;;;;;10.23;6.83;;;3.80;99.90;;;;;;4923392;29;20160;-95
2020/12/14 05:06:13;;;;;;;8.33;6.83;;;3.80;99.90;;;;;;4919765;29;20209;-90
2020/12/14 05:08:39;;;;;;;7.93;6.47;;;3.80;99.90;;;;;;4918839;29;20303;-92
2020/12/14 05:11:05;;;;;;;9.50;6.70;;;3.80;99.90;;;;;;4908141;29;20191;-92
2020/12/14 05:13:30;;;;;;;9.23;6.80;;;3.80;99.90;;;;;;4902182;29;20175;-96
2020/12/14 05:15:56;;;;;;;7.57;5.90;;;3.90;99.90;;;;;;4904308;29;20215;-91
2020/12/14 05:18:26;;;;;;;8.27;5.97;;;3.90;99.90;;;;;;4934225;29;20182;-94
2020/12/14 05:21:10;;;;;;;7.20;6.00;;;3.90;99.90;;;;;;4917783;29;20258;-90
2020/12/14 05:23:35;;;;;;;9.73;6.47;;;3.90;99.90;;;;;;4918125;29;20206;-90
2020/12/14 05:26:29;;;;;;;8.50;6.07;;;3.90;99.90;;;;;;4920320;29;20183;-90
2020/12/14 05:28:55;;;;;;;9.07;6.10;;;3.90;99.90;;;;;;4919666;29;20305;-96
2020/12/14 05:31:21;;;;;;;7.30;6.13;;;3.90;99.90;;;;;;4920343;29;20187;-91
2020/12/14 05:33:46;;;;;;;11.23;6.47;;;3.90;99.90;;;;;;4910410;29;20192;-93
2020/12/14 05:36:21;;;;;;;7.17;5.87;;;3.90;99.90;;;;;;4909312;29;20193;-90
2020/12/14 05:41:22;;;;;;;7.87;6.03;;;3.90;99.90;;;;;;4944106;23;20257;-92
2020/12/14 05:43:58;;;;;;;7.47;5.93;;;4.00;99.90;;;;;;4922911;29;20178;-91
2020/12/14 05:46:38;;;;;;;7.47;5.93;;;3.90;99.90;;;;;;4939629;23;20256;-92
2020/12/14 05:49:07;;;;;;;7.17;5.47;;;3.90;99.90;;;;;;4940673;28;20217;-92
2020/12/14 05:51:42;;;;;;;9.97;5.47;;;4.00;99.90;;;;;;4930666;23;20237;-91
2020/12/14 05:54:12;;;;;;;6.30;4.80;;;3.90;99.90;;;;;;4921460;29;20178;-92
2020/12/14 05:56:48;;;;;;;8.00;5.50;;;4.00;99.90;;;;;;4923527;29;20178;-90
2020/12/14 05:59:19;;;;;;;6.47;4.90;;;4.00;99.90;;;;;;4919691;29;20214;-90
2020/12/14 06:01:46;;;;;;;5.53;4.83;;;4.10;99.90;;;;;;4912344;29;20187;-93
2020/12/14 06:04:14;;;;;;;7.37;5.33;;;4.20;99.90;;;;;;4918353;29;20171;-90
2020/12/14 06:07:03;;;;;;;8.87;5.07;;;4.20;99.90;;;;;;4901841;29;20174;-93
2020/12/14 06:09:36;;;;;;;7.47;5.27;;;4.20;99.90;;;;;;4918237;29;20230;-90
2020/12/14 06:12:04;;;;;;;7.03;5.03;;;4.30;99.90;;;;;;4902207;29;20179;-90
2020/12/14 06:14:39;;;;;;;7.10;5.33;;;4.30;99.90;;;;;;4908930;29;20206;-90
2020/12/14 06:17:19;;;;;;;6.53;4.60;;;4.30;99.90;;;;;;4894340;29;20193;-90
2020/12/14 06:19:45;;;;;;;6.57;5.23;;;4.30;99.90;;;;;;4916202;23;20277;-93
2020/12/14 06:22:12;;;;;;;5.47;4.70;;;4.40;99.90;;;;;;4888472;29;20254;-95
2020/12/14 06:24:40;;;;;;;6.50;4.67;;;4.40;99.90;;;;;;4912144;29;20187;-96
2020/12/14 06:27:10;;;;;;;5.97;4.77;;;4.40;99.90;;;;;;4896971;29;20222;-95
2020/12/14 06:29:41;;;;;;;7.00;4.70;;;4.40;99.90;;;;;;4893328;29;20198;-96
2020/12/14 06:32:41;;;;;;;6.60;4.67;;;4.40;99.90;;;;;;4892873;29;20179;-95
2020/12/14 06:35:15;;;;;;;5.57;4.30;;;4.40;99.90;;;;;;4894170;29;20183;-96
2020/12/14 06:38:07;;;;;;;6.90;4.80;;;4.40;99.90;;;;;;4874348;29;20635;-96
2020/12/14 06:40:58;;;;;;;5.80;4.57;;;4.40;99.90;;;;;;4893778;29;20274;-96
2020/12/14 06:43:32;;;;;;;9.77;5.30;;;4.40;99.90;;;;;;4886672;29;20242;-96
2020/12/14 06:45:58;;;;;;;6.33;5.27;;;4.40;99.90;;;;;;4887641;29;20195;-94
2020/12/14 06:48:52;;;;;;;5.50;4.63;;;4.40;99.90;;;;;;4884938;29;20259;-95
2020/12/14 06:51:17;;;;;;;5.23;4.27;;;4.40;99.90;;;;;;4882471;29;20195;-96
2020/12/14 06:53:54;;;;;;;5.53;4.47;;;4.40;99.90;;;;;;4885244;29;20245;-96
2020/12/14 06:56:26;;;;;;;4.80;4.30;;;4.30;99.90;;;;;;4887862;29;20206;-96
2020/12/14 06:59:25;;;;;;;6.27;4.60;;;4.40;99.90;;;;;;4888893;29;20194;-96
2020/12/14 07:02:00;;;;;;;6.93;4.77;;;4.40;99.90;;;;;;4888747;29;20175;-96
2020/12/14 07:04:29;;;;;;;5.33;4.20;;;4.40;99.90;;;;;;4885438;29;20269;-95
2020/12/14 07:06:56;;;;;;;6.80;4.80;;;4.40;99.90;;;;;;4885251;29;20258;-95
2020/12/14 07:09:33;;;;;;;6.30;4.80;;;4.40;99.90;;;;;;4885322;29;20517;-95
2020/12/14 07:12:11;;;;;;;5.07;4.23;;;4.40;99.90;;;;;;4892005;29;20186;-96
2020/12/14 07:14:45;;;;;;;5.60;4.43;;;4.40;99.90;;;;;;4886906;29;20183;-95
2020/12/14 07:17:19;;;;;;;5.10;4.07;;;4.40;99.90;;;;;;4887323;29;20686;-95
2020/12/14 07:19:46;;;;;;;6.80;4.47;;;4.40;99.90;;;;;;4886209;29;20243;-96
2020/12/14 07:22:20;;;;;;;5.07;4.00;;;4.40;99.90;;;;;;4886097;29;20630;-95
2020/12/14 07:25:01;;;;;;;5.10;4.07;;;4.40;99.90;;;;;;4884414;29;20183;-95
2020/12/14 07:27:30;;;;;;;5.40;4.10;;;4.40;99.90;;;;;;4883902;29;20226;-94
2020/12/14 07:30:10;;;;;;;7.37;4.47;;;4.40;99.90;;;;;;4883539;29;20203;-94
2020/12/14 07:32:37;;;;;;;4.43;3.80;;;4.40;99.90;;;;;;4883500;29;20187;-96
2020/12/14 07:35:07;;;;;;;5.10;4.07;;;4.40;99.90;;;;;;4885237;29;20206;-93
2020/12/14 07:37:35;;;;;;;6.53;4.40;;;4.40;99.90;;;;;;4871945;29;20503;-90
2020/12/14 07:40:02;;;;;;;5.13;4.60;;;4.40;99.90;;;;;;4883919;29;20175;-91
2020/12/14 07:42:32;;;;;;;6.90;4.90;;;4.40;99.90;;;;;;4883561;29;20218;-92
2020/12/14 07:45:13;;;;;;;6.60;4.60;;;4.30;99.90;;;;;;4883835;29;20191;-95
2020/12/14 07:47:41;;;;;;;4.63;3.73;;;4.40;99.90;;;;;;4884500;29;20310;-92
2020/12/14 07:50:19;;;;;;;5.23;4.47;;;4.40;99.90;;;;;;4919418;23;20245;-91
2020/12/14 07:52:55;;;;;;;5.47;4.40;;;4.40;99.90;;;;;;4928014;29;20625;-92
2020/12/14 07:55:25;;;;;;;6.33;4.60;;;4.40;99.90;;;;;;4922862;29;20250;-92
2020/12/14 07:58:11;;;;;;;5.00;4.33;;;4.40;99.90;;;;;;4925201;29;20170;-94
2020/12/14 08:00:37;;;;;;;5.40;4.30;;;4.40;99.90;;;;;;4893125;29;20203;-96
2020/12/14 08:03:05;;;;;;;5.23;4.00;;;4.50;99.90;;;;;;4916261;29;20194;-95
2020/12/14 08:05:30;;;;;;;5.30;4.10;;;4.50;99.90;;;;;;4913926;29;20273;-91
2020/12/14 08:08:05;;;;;;;6.13;4.47;;;4.50;99.90;;;;;;4912802;29;20252;-92
2020/12/14 08:10:36;;;;;;;7.37;4.57;;;4.60;99.90;;;;;;4894534;29;20278;-96
2020/12/14 08:13:09;;;;;;;6.47;4.37;;;4.60;99.90;;;;;;4904796;29;20257;-94
2020/12/14 08:15:36;;;;;;;6.33;4.43;;;4.60;99.90;;;;;;4885799;29;20180;-96
2020/12/14 08:18:06;;;;;;;5.17;3.70;;;4.70;99.90;;;;;;4886019;29;20615;-94
2020/12/14 08:20:34;;;;;;;6.17;4.17;;;4.80;99.90;;;;;;4886666;29;20168;-93
2020/12/14 08:23:02;;;;;;;4.77;3.83;;;4.80;99.90;;;;;;4886706;29;20270;-95
2020/12/14 08:25:30;;;;;;;4.43;3.80;;;4.80;99.90;;;;;;4904935;29;20171;-93
2020/12/14 08:28:02;;;;;;;5.43;3.50;;;4.90;99.90;;;;;;4886708;29;20207;-95
2020/12/14 08:30:29;;;;;;;5.43;3.67;;;4.90;99.90;;;;;;4903000;29;20195;-96
2020/12/14 08:33:16;;;;;;;5.10;3.17;;;4.90;99.90;;;;;;4889010;29;20518;-96
2020/12/14 08:35:54;;;;;;;6.40;3.53;;;5.00;99.90;;;;;;4890120;29;20649;-96
2020/12/14 08:38:48;;;;;;;4.10;3.07;;;5.00;99.90;;;;;;4889527;29;20191;-95
2020/12/14 08:41:19;;;;;;;4.57;2.93;;;5.00;99.90;;;;;;4893022;29;20183;-93
2020/12/14 08:43:45;;;;;;;5.20;3.30;;;5.00;99.90;;;;;;4887743;29;20264;-96
2020/12/14 08:46:14;;;;;;;4.60;2.90;;;5.00;99.90;;;;;;4888544;29;20278;-95
2020/12/14 08:48:57;;;;;;;6.50;3.50;;;5.00;99.90;;;;;;4889563;29;20211;-96
2020/12/14 08:51:23;;;;;;;4.03;2.93;;;5.00;99.90;;;;;;4891333;29;20239;-96
2020/12/14 08:53:51;;;;;;;6.67;3.30;;;5.10;99.90;;;;;;4889877;29;20209;-95
2020/12/14 08:56:19;;;;;;;4.63;3.00;;;5.10;99.90;;;;;;4889062;29;20183;-92
2020/12/14 08:58:53;;;;;;;3.80;3.20;;;5.20;99.90;;;;;;4890137;29;20222;-94
2020/12/14 09:01:24;;;;;;;3.47;2.90;;;5.30;99.90;;;;;;4885855;29;20218;-95
2020/12/14 09:04:01;;;;;;;4.47;3.33;;;5.30;99.90;;;;;;4895730;29;20570;-96
2020/12/14 09:06:32;;;;;;;4.40;2.87;;;5.40;99.90;;;;;;4911930;29;20190;-92
2020/12/14 09:09:00;;;;;;;4.43;3.17;;;5.50;99.90;;;;;;4910566;29;20206;-96
2020/12/14 09:11:31;;;;;;;4.57;3.20;;;5.50;99.90;;;;;;4893633;29;20182;-96
2020/12/14 09:13:58;;;;;;;6.97;3.63;;;5.50;99.90;;;;;;4888223;29;20198;-94
2020/12/14 09:16:25;;;;;;;4.73;2.90;;;5.60;99.90;;;;;;4910773;29;20179;-96
2020/12/14 09:18:52;;;;;;;3.30;2.83;;;5.60;99.90;;;;;;4890556;29;20183;-96
2020/12/14 09:21:19;;;;;;;6.43;3.27;;;5.70;99.90;;;;;;4890386;29;20163;-95
2020/12/14 09:24:05;;;;;;;3.43;2.80;;;5.80;99.90;;;;;;4894188;29;20238;-96
2020/12/14 09:26:31;;;;;;;3.43;2.50;;;5.90;99.90;;;;;;4890191;29;20191;-96
2020/12/14 09:29:05;;;;;;;3.90;2.60;;;6.00;99.90;;;;;;4888838;29;20219;-94
2020/12/14 09:31:30;;;;;;;2.37;2.00;;;6.10;99.90;;;;;;4889245;29;20583;-95
2020/12/14 09:33:56;;;;;;;5.47;2.50;;;6.20;99.90;;;;;;4906160;29;20211;-93
2020/12/14 09:36:22;;;;;;;3.63;2.20;;;6.30;99.90;;;;;;4891906;29;20182;-95
2020/12/14 09:38:54;;;;;;;5.47;2.43;;;6.40;99.90;;;;;;4889529;29;20183;-94
2020/12/14 09:41:21;;;;;;;3.53;1.80;;;6.60;99.90;;;;;;4903478;29;20245;-94
2020/12/14 09:43:47;;;;;;;4.00;2.00;;;6.70;99.90;;;;;;4897624;29;20199;-92
2020/12/14 09:46:13;;;;;;;3.60;1.90;;;6.90;99.90;;;;;;4884214;29;20532;-94
2020/12/14 09:48:40;;;;;;;3.57;1.70;;;6.90;99.90;;;;;;4901270;29;20215;-95
2020/12/14 09:51:06;;;;;;;3.67;1.60;;;6.90;99.90;;;;;;4884281;29;20290;-94
2020/12/14 09:53:33;;;;;;;2.33;1.80;;;7.00;99.90;;;;;;4884188;29;20535;-93
2020/12/14 09:55:59;;;;;;;4.03;2.00;;;7.00;99.90;;;;;;4884263;29;20190;-95
2020/12/14 09:58:24;;;;;;;4.13;1.70;;;7.00;99.90;;;;;;4884404;29;20192;-95
2020/12/14 10:00:50;;;;;;;3.70;1.30;;;7.10;99.90;;;;;;4884173;29;20190;-95
2020/12/14 10:03:16;;;;;;;1.40;1.30;;;7.10;99.90;;;;;;4884689;29;20220;-96
2020/12/14 10:05:47;;;;;;;2.73;1.37;;;7.10;99.90;;;;;;4884062;29;20189;-94
2020/12/14 10:08:16;;;;;;;2.33;1.47;;;7.20;99.90;;;;;;4900644;29;20208;-92
2020/12/14 10:10:43;;;;;;;3.07;1.27;;;7.20;99.90;;;;;;4884014;29;20645;-94
2020/12/14 10:13:09;;;;;;;3.63;1.37;;;7.30;99.90;;;;;;4883916;29;20187;-96
2020/12/14 10:15:34;;;;;;;3.37;1.40;;;7.40;99.90;;;;;;4883966;29;20254;-95
2020/12/14 10:18:00;;;;;;;2.43;1.40;;;7.50;99.90;;;;;;4900737;29;20184;-95
2020/12/14 10:20:28;;;;;;;2.37;1.30;;;7.60;99.90;;;;;;4883835;29;20179;-96
2020/12/14 10:22:54;;;;;;;1.53;1.10;;;7.80;99.90;;;;;;4884699;29;20183;-96
2020/12/14 10:25:21;;;;;;;1.77;1.10;;;7.90;99.90;;;;;;4885750;29;20183;-95
2020/12/14 10:27:47;;;;;;;2.57;0.90;;;7.90;99.90;;;;;;4904512;29;20210;-95
2020/12/14 10:30:15;;;;;;;1.77;0.90;;;7.90;99.90;;;;;;4893681;29;20180;-96
2020/12/14 10:32:40;;;;;;;1.83;0.70;;;7.80;99.90;;;;;;4893667;29;20702;-96
2020/12/14 10:35:06;;;;;;;2.13;1.10;;;7.80;99.90;;;;;;4889954;29;20214;-96
2020/12/14 10:37:32;;;;;;;2.43;0.90;;;7.90;99.90;;;;;;4889907;29;20251;-96
2020/12/14 10:40:04;;;;;;;2.43;1.13;;;8.00;99.90;;;;;;4888630;29;20194;-95
2020/12/14 10:42:31;;;;;;;2.90;1.20;;;8.00;99.90;;;;;;4890548;29;20272;-96
2020/12/14 10:45:00;;;;;;;3.37;1.20;;;8.00;99.90;;;;;;4903681;29;20202;-95
2020/12/14 10:47:28;;;;;;;2.37;0.83;;;8.00;99.90;;;;;;4911302;29;20604;-95
2020/12/14 10:50:01;;;;;;;3.33;1.30;;;8.00;99.90;;;;;;4908052;29;20186;-96
2020/12/14 10:52:29;;;;;;;2.07;1.00;;;8.00;99.90;;;;;;4909352;29;20202;-96
2020/12/14 10:54:55;;;;;;;1.30;0.90;;;8.10;99.90;;;;;;4908004;29;20658;-96
2020/12/14 10:57:21;;;;;;;2.80;0.97;;;8.20;99.90;;;;;;4912531;29;20178;-96
2020/12/14 10:59:50;;;;;;;2.43;1.03;;;8.10;99.90;;;;;;4911600;29;20265;-96
2020/12/14 11:02:27;;;;;;;3.73;0.93;;;8.20;99.90;;;;;;4896527;29;20180;-96
2020/12/14 11:04:53;;;;;;;1.30;0.80;;;8.20;99.90;;;;;;4891150;29;20258;-94
2020/12/14 11:07:18;;;;;;;1.50;0.90;;;8.20;99.90;;;;;;4876423;29;20211;-95
2020/12/14 11:10:17;;;;;;;1.40;0.83;;;8.20;99.90;;;;;;4889242;29;20198;-96
2020/12/14 11:12:42;;;;;;;2.13;0.87;;;8.20;99.90;;;;;;4889970;29;20614;-95
2020/12/14 11:15:09;;;;;;;1.77;0.80;;;8.20;99.90;;;;;;4891584;29;20191;-96
2020/12/14 11:17:38;;;;;;;2.30;1.00;;;8.30;99.90;;;;;;4906596;29;20547;-96
2020/12/14 11:20:15;;;;;;;1.30;0.80;;;8.30;99.90;;;;;;4888218;29;20210;-96
2020/12/14 11:22:42;;;;;;;4.60;0.97;;;8.40;99.90;;;;;;4895435;29;20225;-95
2020/12/14 11:25:10;;;;;;;2.50;0.97;;;8.40;99.90;;;;;;4905294;29;20184;-96
2020/12/14 11:27:36;;;;;;;2.67;0.80;;;8.50;99.90;;;;;;4908113;29;20217;-95
2020/12/14 11:30:06;;;;;;;3.37;1.10;;;8.50;99.90;;;;;;4907971;29;20193;-96
2020/12/14 11:32:33;;;;;;;2.57;0.80;;;8.50;99.90;;;;;;4912774;29;20189;-95
2020/12/14 11:34:59;;;;;;;3.60;1.23;;;8.50;99.90;;;;;;4910482;29;20189;-96
2020/12/14 11:37:24;;;;;;;2.20;0.90;;;8.50;99.90;;;;;;4912763;29;20187;-96
2020/12/14 11:40:03;;;;;;;1.57;0.87;;;8.40;99.90;;;;;;4907153;29;20187;-96
2020/12/14 11:42:29;;;;;;;2.13;1.00;;;8.30;99.90;;;;;;4905597;29;20219;-96
2020/12/14 11:44:55;;;;;;;1.53;0.60;;;8.30;99.90;;;;;;4906976;29;20216;-96
2020/12/14 11:47:23;;;;;;;2.43;0.87;;;8.30;99.90;;;;;;4915123;29;20230;-96
2020/12/14 11:49:50;;;;;;;1.10;0.83;;;8.20;99.90;;;;;;4914533;29;20191;-96
2020/12/14 11:52:15;;;;;;;2.57;0.90;;;8.10;99.90;;;;;;4914829;29;20635;-95
2020/12/14 11:54:41;;;;;;;1.10;0.70;;;8.00;99.90;;;;;;4915880;29;20187;-96
2020/12/14 11:57:07;;;;;;;5.57;1.00;;;8.00;99.90;;;;;;4916086;29;20182;-96
2020/12/14 11:59:33;;;;;;;2.50;0.97;;;7.90;99.90;;;;;;4891034;29;20192;-96
2020/12/14 12:02:01;;;;;;;1.97;1.10;;;8.00;99.90;;;;;;4915267;23;20253;-96
2020/12/14 12:04:26;;;;;;;1.60;0.70;;;7.90;99.90;;;;;;4909656;29;20232;-96
2020/12/14 12:06:53;;;;;;;1.67;1.00;;;7.90;99.90;;;;;;4911288;29;20194;-94
2020/12/14 12:09:18;;;;;;;1.83;1.10;;;7.90;99.90;;;;;;4909848;29;20218;-95
2020/12/14 12:12:04;;;;;;;2.70;0.97;;;7.90;99.90;;;;;;4911646;29;20524;-96
2020/12/14 12:14:33;;;;;;;1.43;0.90;;;8.00;99.90;;;;;;4900443;29;20187;-95
2020/12/14 12:16:59;;;;;;;2.97;1.00;;;8.00;99.90;;;;;;4892343;29;20224;-94
2020/12/14 12:19:24;;;;;;;1.60;0.80;;;8.00;99.90;;;;;;4892282;29;20516;-96
2020/12/14 12:21:59;;;;;;;5.30;0.97;;;8.00;99.90;;;;;;4889407;29;20298;-96
2020/12/14 12:24:26;;;;;;;1.37;0.70;;;8.10;99.90;;;;;;4872061;29;20174;-94
2020/12/14 12:26:52;;;;;;;1.43;0.70;;;8.10;99.90;;;;;;4887684;29;20274;-96
2020/12/14 12:29:24;;;;;;;1.47;0.90;;;8.10;99.90;;;;;;4888851;29;20257;-95
2020/12/14 12:31:58;;;;;;;1.30;0.80;;;8.10;99.90;;;;;;4886742;29;20212;-95
2020/12/14 12:34:25;;;;;;;2.13;0.80;;;8.20;99.90;;;;;;4886289;29;20215;-96
2020/12/14 12:36:54;;;;;;;2.03;0.90;;;8.10;99.90;;;;;;4886797;29;20194;-94
2020/12/14 12:39:21;;;;;;;1.70;0.80;;;8.10;99.90;;;;;;4887834;29;20183;-95
2020/12/14 12:42:22;;;;;;;2.63;0.90;;;8.10;99.90;;;;;;4897372;29;20193;-94
2020/12/14 12:44:47;;;;;;;2.07;0.87;;;8.00;99.90;;;;;;4893767;29;20191;-96
2020/12/14 12:47:16;;;;;;;3.27;1.10;;;8.00;99.90;;;;;;4886579;29;20605;-91
2020/12/14 12:49:41;;;;;;;2.93;1.10;;;8.00;99.90;;;;;;4885260;29;20195;-93
2020/12/14 12:52:08;;;;;;;1.93;1.10;;;7.90;99.90;;;;;;4907462;29;20614;-96
2020/12/14 12:54:35;;;;;;;5.80;1.47;;;7.90;99.90;;;;;;4897273;29;20278;-95
2020/12/14 12:57:05;;;;;;;3.53;1.37;;;7.90;99.90;;;;;;4904856;29;20194;-96
2020/12/14 12:59:31;;;;;;;2.30;1.00;;;7.80;99.90;;;;;;4900036;29;20280;-96
2020/12/14 13:02:08;;;;;;;3.23;1.40;;;7.70;99.90;;;;;;4900354;29;20198;-96
2020/12/14 13:04:34;;;;;;;5.47;1.40;;;7.80;99.90;;;;;;4900555;29;20243;-96
2020/12/14 13:07:04;;;;;;;2.57;1.20;;;7.80;99.90;;;;;;4901529;29;20245;-95
2020/12/14 13:09:30;;;;;;;2.97;1.17;;;7.80;99.90;;;;;;4898240;29;20282;-95
2020/12/14 13:11:58;;;;;;;2.70;1.40;;;7.80;99.90;;;;;;4902310;29;20187;-96
2020/12/14 13:14:25;;;;;;;3.70;1.40;;;7.80;99.90;;;;;;4892167;29;20542;-96